Time;durP1;ratioP1;P1;durP2;ratioP2;P2;SDS_P1;SDS_P2;PMS_P1;PMS_P2;Temp;Humidity;BMP_temperature;BMP_pressure;BME280_temperature;BME280_humidity;BME280_pressure;Samples;Min_cycle;Max_cycle;Signal;HPM_P1;HPM_P2
2022/03/17 00:00:57;;;;;;;13.13;9.20;;;;;;;7.74;100.00;95100.44;5035781;28;20202;-61
2022/03/17 00:03:23;;;;;;;12.40;8.47;;;;;;;7.72;100.00;95097.16;5035704;28;20231;-60
2022/03/17 00:05:49;;;;;;;14.07;10.23;;;;;;;7.64;100.00;95093.44;5035360;28;20344;-64
2022/03/17 00:08:15;;;;;;;13.00;9.43;;;;;;;7.34;100.00;95076.94;5035672;28;20182;-64
2022/03/17 00:10:41;;;;;;;16.20;9.03;;;;;;;7.17;100.00;95069.66;5035285;28;20190;-64
2022/03/17 00:13:06;;;;;;;18.77;10.10;;;;;;;7.14;100.00;95069.84;5035302;28;20177;-61
2022/03/17 00:15:32;;;;;;;16.17;10.37;;;;;;;7.15;100.00;95063.88;5035437;28;20210;-64
2022/03/17 00:17:58;;;;;;;15.03;10.23;;;;;;;7.15;100.00;95074.00;5035230;28;20174;-64
2022/03/17 00:20:24;;;;;;;15.47;10.00;;;;;;;7.00;100.00;95067.38;5034992;28;20233;-60
2022/03/17 00:22:50;;;;;;;15.53;10.77;;;;;;;7.05;100.00;95062.88;5035423;28;20202;-61
2022/03/17 00:25:17;;;;;;;14.97;9.90;;;;;;;7.35;100.00;95081.09;5041416;23;20226;-62
2022/03/17 00:27:43;;;;;;;13.03;9.87;;;;;;;7.61;100.00;95087.78;5035372;28;20203;-61
2022/03/17 00:30:09;;;;;;;14.90;10.03;;;;;;;7.73;100.00;95086.16;5035015;28;20287;-61
2022/03/17 00:32:35;;;;;;;13.60;9.83;;;;;;;7.85;100.00;95085.34;5035001;28;20224;-64
2022/03/17 00:37:46;;;;;;;12.83;9.23;;;;;;;8.21;100.00;95119.09;5034967;28;20542;-59
2022/03/17 00:40:13;;;;;;;14.83;10.60;;;;;;;8.17;100.00;95110.09;5001128;28;20628;-61
2022/03/17 00:42:39;;;;;;;15.10;10.97;;;;;;;8.19;100.00;95115.88;5034751;28;20202;-62
2022/03/17 00:45:05;;;;;;;13.37;10.03;;;;;;;8.09;100.00;95109.00;5035189;28;20726;-60
2022/03/17 00:47:30;;;;;;;13.70;10.03;;;;;;;8.11;100.00;95107.16;5034669;28;20178;-64
2022/03/17 00:49:56;;;;;;;12.73;10.17;;;;;;;8.04;100.00;95106.75;5034482;28;20198;-64
2022/03/17 00:52:21;;;;;;;18.43;12.93;;;;;;;7.92;100.00;95084.81;5016970;28;20287;-61
2022/03/17 00:54:47;;;;;;;20.97;14.57;;;;;;;7.71;100.00;95086.25;5035054;28;20209;-62
2022/03/17 00:57:12;;;;;;;24.43;16.00;;;;;;;7.53;100.00;95097.59;5034488;28;20573;-62
2022/03/17 00:59:40;;;;;;;24.93;16.23;;;;;;;7.55;100.00;95093.25;5000767;28;20196;-60
2022/03/17 01:02:06;;;;;;;23.90;14.87;;;;;;;7.73;100.00;95109.75;5034737;28;20302;-60
2022/03/17 01:04:33;;;;;;;25.70;14.40;;;;;;;7.47;100.00;95108.91;5034858;28;20182;-64
2022/03/17 01:06:59;;;;;;;22.13;12.43;;;;;;;7.09;100.00;95099.66;5034306;28;20206;-64
2022/03/17 01:09:24;;;;;;;17.50;12.60;;;;;;;7.31;100.00;95104.97;5034609;28;20284;-62
2022/03/17 01:11:49;;;;;;;17.27;12.40;;;;;;;7.15;100.00;95102.59;5034196;28;20198;-62
2022/03/17 01:14:15;;;;;;;15.40;10.57;;;;;;;7.19;100.00;95105.75;5034691;28;20186;-64
2022/03/17 01:16:42;;;;;;;19.63;11.50;;;;;;;7.25;100.00;95115.47;5016407;28;20288;-61
2022/03/17 01:19:07;;;;;;;17.30;11.67;;;;;;;7.26;100.00;95122.97;5034627;28;20240;-61
2022/03/17 01:21:32;;;;;;;16.07;11.73;;;;;;;7.32;100.00;95112.44;5034214;28;20194;-64
2022/03/17 01:23:58;;;;;;;19.67;12.33;;;;;;;7.46;100.00;95119.13;5016464;28;20199;-64
2022/03/17 01:26:24;;;;;;;20.60;13.53;;;;;;;7.58;100.00;95131.78;5016001;28;20225;-60
2022/03/17 01:28:50;;;;;;;21.90;14.57;;;;;;;7.44;100.00;95124.28;5034072;28;20189;-61
2022/03/17 01:31:15;;;;;;;20.57;14.50;;;;;;;7.21;100.00;95109.78;5033811;28;20628;-60
2022/03/17 01:33:41;;;;;;;23.00;14.57;;;;;;;7.04;100.00;95115.13;5033981;28;20263;-60
2022/03/17 01:36:14;;;;;;;26.77;15.57;;;;;;;7.15;100.00;95127.88;5033694;28;20237;-60
2022/03/17 01:38:39;;;;;;;21.93;14.10;;;;;;;7.21;100.00;95124.16;5034077;28;20637;-63
2022/03/17 01:41:05;;;;;;;21.33;15.07;;;;;;;7.38;100.00;95134.00;5033662;28;20241;-61
2022/03/17 01:43:30;;;;;;;22.50;13.43;;;;;;;7.36;100.00;95125.69;5033827;28;20183;-60
2022/03/17 01:45:56;;;;;;;18.33;12.97;;;;;;;7.11;100.00;95125.66;5033482;28;20309;-63
2022/03/17 01:48:21;;;;;;;16.63;11.07;;;;;;;7.16;100.00;95134.56;5033487;28;20174;-63
2022/03/17 01:50:53;;;;;;;14.33;10.17;;;;;;;7.36;100.00;95148.47;5015792;28;20206;-60
2022/03/17 01:53:19;;;;;;;13.07;9.53;;;;;;;7.29;100.00;95148.03;5033694;28;20221;-61
2022/03/17 01:55:45;;;;;;;14.43;9.10;;;;;;;7.21;100.00;95154.50;5015862;28;20286;-59
2022/03/17 01:58:10;;;;;;;13.30;8.30;;;;;;;7.18;100.00;95158.03;5033466;28;20177;-62
2022/03/17 02:00:37;;;;;;;9.00;6.70;;;;;;;7.01;100.00;95170.13;5032645;28;20698;-62
2022/03/17 02:03:03;;;;;;;7.20;4.77;;;;;;;6.76;100.00;95173.34;5032947;28;20196;-64
2022/03/17 02:05:29;;;;;;;12.33;5.53;;;;;;;6.79;100.00;95161.31;5033128;28;20221;-64
2022/03/17 02:07:54;;;;;;;6.83;4.90;;;;;;;6.82;100.00;95157.00;5033469;28;20196;-60
2022/03/17 02:10:22;;;;;;;7.03;5.10;;;;;;;6.54;100.00;95142.72;5033498;28;20642;-64
2022/03/17 02:15:33;;;;;;;4.63;3.47;;;;;;;6.38;100.00;95163.03;5033375;28;20228;-61
2022/03/17 02:18:00;;;;;;;3.27;2.97;;;;;;;6.38;100.00;95165.56;5032937;28;20188;-63
2022/03/17 02:20:27;;;;;;;2.83;2.10;;;;;;;6.33;100.00;95164.22;5032869;28;20592;-61
2022/03/17 02:22:54;;;;;;;3.27;1.83;;;;;;;6.32;100.00;95160.09;5015278;28;20178;-63
2022/03/17 02:25:34;;;;;;;2.20;1.80;;;;;;;6.33;100.00;95177.66;5033345;28;20228;-61
2022/03/17 02:28:02;;;;;;;2.27;2.10;;;;;;;6.26;100.00;95178.13;5032666;28;20571;-64
2022/03/17 02:30:30;;;;;;;2.90;1.83;;;;;;;6.30;100.00;95170.25;5031414;28;20201;-63
2022/03/17 02:33:01;;;;;;;3.93;2.33;;;;;;;6.29;100.00;95165.31;5038998;23;20795;-61
2022/03/17 02:35:29;;;;;;;2.20;2.00;;;;;;;6.25;100.00;95161.34;5032472;28;20706;-63
2022/03/17 02:37:55;;;;;;;2.07;1.70;;;;;;;6.45;100.00;95174.41;5033035;28;20271;-61
2022/03/17 02:40:22;;;;;;;1.77;1.50;;;;;;;6.39;100.00;95179.81;5032527;28;20197;-60
2022/03/17 02:42:48;;;;;;;2.43;2.00;;;;;;;6.49;100.00;95197.75;5033085;28;20189;-64
2022/03/17 02:45:13;;;;;;;2.00;1.80;;;;;;;6.62;100.00;95202.00;4998433;28;20214;-60
2022/03/17 02:47:40;;;;;;;2.17;1.73;;;;;;;6.62;100.00;95194.41;5032797;28;20276;-62
2022/03/17 02:50:07;;;;;;;2.50;2.30;;;;;;;6.48;100.00;95174.22;5032481;28;20185;-63
2022/03/17 02:52:33;;;;;;;1.70;1.60;;;;;;;6.31;100.00;95166.84;5032628;28;20197;-64
2022/03/17 02:54:59;;;;;;;1.93;1.83;;;;;;;6.39;100.00;95192.44;5032324;28;20249;-65
2022/03/17 02:57:25;;;;;;;1.83;1.60;;;;;;;6.40;100.00;95194.06;5032738;28;20239;-62
2022/03/17 02:59:54;;;;;;;1.90;1.77;;;;;;;6.29;100.00;95193.88;5032166;28;20191;-62
2022/03/17 03:02:21;;;;;;;2.60;2.40;;;;;;;6.34;100.00;95191.88;5032191;28;20189;-60
2022/03/17 03:04:47;;;;;;;3.47;2.67;;;;;;;6.32;100.00;95197.97;5031992;28;20687;-60
2022/03/17 03:07:12;;;;;;;5.90;4.23;;;;;;;6.25;100.00;95206.78;5014570;28;20568;-60
2022/03/17 03:09:38;;;;;;;3.87;3.37;;;;;;;6.36;100.00;95209.50;5032236;28;20209;-62
2022/03/17 03:12:04;;;;;;;4.30;3.60;;;;;;;6.44;100.00;95210.66;5031636;28;20213;-65
2022/03/17 03:14:30;;;;;;;4.40;3.50;;;;;;;6.65;100.00;95227.03;5032158;28;20200;-62
2022/03/17 03:16:56;;;;;;;5.03;4.00;;;;;;;6.65;100.00;95233.81;5031730;28;20213;-64
2022/03/17 03:19:21;;;;;;;4.70;4.10;;;;;;;6.56;100.00;95232.66;5014262;28;20192;-62
2022/03/17 03:21:47;;;;;;;5.10;3.70;;;;;;;6.41;100.00;95228.50;5032011;28;20292;-62
2022/03/17 03:24:14;;;;;;;4.73;4.30;;;;;;;6.54;100.00;95219.31;5014514;28;20189;-62
2022/03/17 03:26:40;;;;;;;5.50;3.87;;;;;;;6.39;100.00;95229.50;5031615;28;20248;-64
2022/03/17 03:31:40;;;;;;;6.07;4.90;;;;;;;6.22;100.00;95230.47;5032125;28;20638;-62
2022/03/17 03:34:06;;;;;;;6.33;4.80;;;;;;;6.23;100.00;95243.91;5014319;28;20280;-60
2022/03/17 03:39:15;;;;;;;6.17;5.07;;;;;;;6.42;99.19;95260.41;5032135;28;20180;-62
2022/03/17 03:41:40;;;;;;;7.50;5.67;;;;;;;6.42;99.43;95249.53;5031704;28;20206;-59
2022/03/17 03:44:06;;;;;;;7.53;5.93;;;;;;;6.29;100.00;95241.84;5031711;28;20276;-64
2022/03/17 03:46:31;;;;;;;7.90;5.57;;;;;;;6.32;100.00;95244.19;5031718;28;20700;-59
2022/03/17 03:48:57;;;;;;;7.13;5.80;;;;;;;6.45;98.90;95255.19;5031805;28;20181;-63
2022/03/17 03:51:22;;;;;;;6.47;5.30;;;;;;;6.59;98.74;95251.84;5013987;28;20573;-61
2022/03/17 03:56:31;;;;;;;8.57;7.00;;;;;;;6.00;100.00;95220.00;5031773;28;20217;-63
2022/03/17 03:59:01;;;;;;;9.83;6.50;;;;;;;6.02;100.00;95230.81;5031774;28;20180;-62
2022/03/17 04:01:26;;;;;;;9.07;6.67;;;;;;;6.06;100.00;95244.88;5031671;28;20296;-61
2022/03/17 04:03:52;;;;;;;8.90;7.00;;;;;;;6.01;100.00;95233.44;5031707;28;20188;-60
2022/03/17 04:06:18;;;;;;;10.60;7.10;;;;;;;5.96;100.00;95240.47;5031730;28;20306;-60
2022/03/17 04:08:43;;;;;;;9.60;6.50;;;;;;;5.83;100.00;95233.63;5031702;28;20181;-61
2022/03/17 04:11:09;;;;;;;9.67;7.13;;;;;;;5.93;100.00;95244.81;5031511;28;20666;-60
2022/03/17 04:13:35;;;;;;;9.83;7.13;;;;;;;5.44;100.00;95227.44;5031824;28;20615;-64
2022/03/17 04:16:00;;;;;;;10.37;7.57;;;;;;;5.78;100.00;95247.34;5031356;28;20255;-63
2022/03/17 04:18:26;;;;;;;12.10;8.33;;;;;;;5.81;100.00;95252.22;5031436;28;20191;-60
2022/03/17 04:20:51;;;;;;;10.93;8.33;;;;;;;5.80;100.00;95258.97;5031342;28;20202;-61
2022/03/17 04:23:17;;;;;;;10.47;7.93;;;;;;;5.67;100.00;95250.50;5031494;28;20196;-61
2022/03/17 04:25:42;;;;;;;9.83;7.27;;;;;;;5.52;100.00;95251.31;5034083;28;20213;-66
2022/03/17 04:28:14;;;;;;;10.17;7.47;;;;;;;5.33;100.00;95260.00;5035959;28;20209;-62
2022/03/17 04:30:40;;;;;;;10.17;7.87;;;;;;;5.32;100.00;95261.69;5000897;28;20696;-61
2022/03/17 04:33:05;;;;;;;11.27;7.50;;;;;;;5.50;100.00;95280.03;5017520;28;20193;-60
2022/03/17 04:35:31;;;;;;;10.73;7.50;;;;;;;5.61;100.00;95292.88;5034942;28;20200;-64
2022/03/17 04:37:56;;;;;;;11.00;8.33;;;;;;;5.73;100.00;95297.25;5034976;28;20564;-62
2022/03/17 04:40:23;;;;;;;8.97;6.80;;;;;;;5.87;100.00;95317.50;5034759;28;20554;-64
2022/03/17 04:42:49;;;;;;;8.43;6.60;;;;;;;5.91;100.00;95303.81;5035215;28;20196;-65
2022/03/17 04:45:14;;;;;;;10.20;6.57;;;;;;;6.07;100.00;95324.75;5016925;28;20218;-61
2022/03/17 04:47:40;;;;;;;10.23;7.03;;;;;;;5.78;100.00;95287.69;5034646;28;20200;-64
2022/03/17 04:50:06;;;;;;;8.90;6.47;;;;;;;5.62;100.00;95290.25;5016919;28;20182;-62
2022/03/17 04:55:16;;;;;;;8.67;6.23;;;;;;;5.13;100.00;95273.66;5034761;28;20334;-61
2022/03/17 04:57:41;;;;;;;9.13;6.73;;;;;;;5.31;100.00;95287.81;5034333;28;20236;-62
2022/03/17 05:00:07;;;;;;;10.97;6.63;;;;;;;4.98;100.00;95289.59;5016895;28;20256;-64
2022/03/17 05:02:32;;;;;;;8.30;6.40;;;;;;;5.13;100.00;95300.56;5034681;28;20196;-62
2022/03/17 05:04:58;;;;;;;9.07;6.77;;;;;;;5.14;100.00;95308.03;5034564;28;20188;-62
2022/03/17 05:07:23;;;;;;;8.13;6.27;;;;;;;5.25;100.00;95308.31;5034786;28;20186;-62
2022/03/17 05:09:49;;;;;;;9.80;7.40;;;;;;;5.23;100.00;95305.06;5016673;28;20654;-63
2022/03/17 05:12:14;;;;;;;8.73;6.03;;;;;;;5.37;100.00;95321.94;5034647;28;20196;-62
2022/03/17 05:14:40;;;;;;;9.10;6.60;;;;;;;5.47;100.00;95328.94;5016630;28;20185;-65
2022/03/17 05:17:05;;;;;;;10.00;6.27;;;;;;;5.54;100.00;95340.31;5016458;28;20748;-65
2022/03/17 05:19:31;;;;;;;9.57;6.63;;;;;;;5.61;100.00;95345.84;5034271;28;20188;-65
2022/03/17 05:21:56;;;;;;;7.53;5.80;;;;;;;5.66;100.00;95343.84;5034344;28;20670;-62
2022/03/17 05:24:22;;;;;;;8.40;6.60;;;;;;;5.52;100.00;95341.28;5034037;28;20668;-65
2022/03/17 05:26:47;;;;;;;8.33;6.37;;;;;;;5.22;100.00;95326.09;5034020;28;20218;-65
2022/03/17 05:29:13;;;;;;;7.80;5.80;;;;;;;5.05;100.00;95321.13;5034029;28;20180;-62
2022/03/17 05:31:39;;;;;;;8.40;5.47;;;;;;;5.09;100.00;95327.63;5033970;28;20626;-63
2022/03/17 05:34:04;;;;;;;7.50;5.60;;;;;;;5.10;100.00;95345.19;5034514;28;20679;-66
2022/03/17 05:36:30;;;;;;;9.70;6.43;;;;;;;4.89;100.00;95335.41;5033726;28;20228;-62
2022/03/17 05:38:55;;;;;;;8.10;6.20;;;;;;;4.95;100.00;95340.94;5033953;28;20185;-63
2022/03/17 05:41:22;;;;;;;8.33;5.53;;;;;;;4.96;100.00;95336.72;5033627;28;20212;-62
2022/03/17 05:43:54;;;;;;;7.23;5.20;;;;;;;5.17;100.00;95373.41;5033608;28;20188;-67
2022/03/17 05:46:20;;;;;;;6.40;4.80;;;;;;;5.26;100.00;95379.66;5016985;28;20748;-60
2022/03/17 05:48:45;;;;;;;6.60;5.10;;;;;;;5.24;100.00;95367.16;5033629;28;20203;-61
2022/03/17 05:51:11;;;;;;;8.73;5.47;;;;;;;5.15;100.00;95366.81;5033798;28;20593;-62
2022/03/17 05:53:36;;;;;;;8.13;5.30;;;;;;;5.25;100.00;95381.41;5015675;28;20184;-60
2022/03/17 05:56:03;;;;;;;7.00;5.10;;;;;;;5.09;100.00;95371.28;5033302;28;20700;-61
2022/03/17 05:58:29;;;;;;;7.57;5.13;;;;;;;5.11;100.00;95383.78;5033437;28;20685;-61
2022/03/17 06:00:55;;;;;;;5.90;4.23;;;;;;;4.59;100.00;95365.47;5015724;28;20200;-61
2022/03/17 06:03:20;;;;;;;6.47;4.43;;;;;;;4.71;100.00;95377.47;5066476;23;20245;-62
2022/03/17 06:05:45;;;;;;;6.97;4.60;;;;;;;4.96;100.00;95382.91;5053168;28;20207;-62
2022/03/17 06:08:11;;;;;;;6.47;4.47;;;;;;;4.90;100.00;95389.94;5053474;28;20198;-62
2022/03/17 06:10:38;;;;;;;6.20;4.37;;;;;;;5.04;100.00;95385.84;5053174;28;20338;-61
2022/03/17 06:13:05;;;;;;;6.10;4.33;;;;;;;5.11;100.00;95381.25;5057741;23;20235;-63
2022/03/17 06:15:33;;;;;;;6.00;4.30;;;;;;;5.17;100.00;95382.69;5015291;28;20211;-61
2022/03/17 06:18:00;;;;;;;7.30;4.40;;;;;;;5.39;100.00;95395.78;5033555;28;20693;-64
2022/03/17 06:20:29;;;;;;;7.13;4.47;;;;;;;5.30;100.00;95394.56;5015195;28;20290;-66
2022/03/17 06:22:59;;;;;;;4.77;4.00;;;;;;;5.27;100.00;95417.41;5015372;28;20732;-63
2022/03/17 06:25:28;;;;;;;7.53;3.90;;;;;;;5.18;100.00;95412.84;5032684;28;20631;-61
2022/03/17 06:27:54;;;;;;;4.50;3.93;;;;;;;5.19;100.00;95417.00;5033327;28;20188;-66
2022/03/17 06:30:23;;;;;;;5.17;3.73;;;;;;;5.18;100.00;95399.41;5032908;28;20205;-63
2022/03/17 06:32:50;;;;;;;5.63;3.70;;;;;;;5.47;100.00;95432.31;5033161;28;20197;-63
2022/03/17 06:35:18;;;;;;;5.60;3.30;;;;;;;5.18;100.00;95404.44;5039072;23;20235;-66
2022/03/17 06:37:48;;;;;;;4.63;3.60;;;;;;;5.22;100.00;95406.75;5033020;28;20242;-62
2022/03/17 06:40:15;;;;;;;5.93;4.30;;;;;;;4.93;100.00;95410.75;5032990;28;20204;-67
2022/03/17 06:42:41;;;;;;;5.83;4.53;;;;;;;5.30;100.00;95436.56;5014908;28;20189;-62
2022/03/17 06:45:07;;;;;;;6.20;4.50;;;;;;;4.97;100.00;95408.88;5032442;28;20201;-62
2022/03/17 06:47:32;;;;;;;8.03;4.70;;;;;;;5.00;100.00;95418.81;5031955;28;20185;-61
2022/03/17 06:49:58;;;;;;;7.00;4.37;;;;;;;5.00;100.00;95414.59;5032820;28;20185;-63
2022/03/17 06:52:23;;;;;;;5.33;3.80;;;;;;;5.14;100.00;95426.47;5032879;28;20568;-61
2022/03/17 06:54:50;;;;;;;5.37;4.10;;;;;;;5.30;100.00;95423.97;5032610;28;20211;-63
2022/03/17 06:57:19;;;;;;;6.87;4.90;;;;;;;5.13;100.00;95430.69;5014687;28;20184;-61
2022/03/17 06:59:46;;;;;;;9.37;5.07;;;;;;;5.17;100.00;95440.63;5038909;23;20231;-62
2022/03/17 07:02:12;;;;;;;7.70;5.47;;;;;;;5.07;100.00;95428.50;5027074;23;20223;-65
2022/03/17 07:04:38;;;;;;;6.27;4.47;;;;;;;4.91;100.00;95430.16;5032193;28;20235;-62
2022/03/17 07:07:04;;;;;;;7.33;4.90;;;;;;;5.08;100.00;95440.22;5032334;28;20247;-60
2022/03/17 07:09:29;;;;;;;9.27;5.33;;;;;;;5.21;100.00;95439.59;5032303;28;20181;-61
2022/03/17 07:11:55;;;;;;;7.83;5.00;;;;;;;5.24;100.00;95439.41;5038890;23;20226;-63
2022/03/17 07:14:20;;;;;;;7.80;4.70;;;;;;;5.24;100.00;95444.47;5032470;28;20186;-65
2022/03/17 07:16:46;;;;;;;8.93;5.00;;;;;;;5.29;100.00;95445.06;5031799;28;20645;-60
2022/03/17 07:19:11;;;;;;;7.33;5.37;;;;;;;5.33;100.00;95454.09;4997943;28;20181;-61
2022/03/17 07:21:37;;;;;;;8.00;5.37;;;;;;;5.38;100.00;95462.19;5032213;28;20213;-65
2022/03/17 07:24:05;;;;;;;7.87;5.00;;;;;;;5.39;100.00;95452.06;5032334;28;20185;-63
2022/03/17 07:26:30;;;;;;;7.47;5.70;;;;;;;5.46;100.00;95460.09;5031947;28;20221;-64
2022/03/17 07:28:56;;;;;;;9.20;5.50;;;;;;;5.69;100.00;95469.81;5032135;28;20240;-65
2022/03/17 07:31:22;;;;;;;9.13;6.07;;;;;;;5.67;100.00;95474.13;5031968;28;20204;-66
2022/03/17 07:33:49;;;;;;;8.33;5.77;;;;;;;5.61;100.00;95467.69;5032012;28;20223;-63
2022/03/17 07:36:15;;;;;;;8.77;6.03;;;;;;;5.46;100.00;95457.59;5014235;28;20202;-64
2022/03/17 07:38:41;;;;;;;9.13;5.93;;;;;;;5.35;100.00;95462.38;5031818;28;20188;-65
2022/03/17 07:41:06;;;;;;;8.07;6.40;;;;;;;5.39;100.00;95471.41;5031721;28;20594;-64
2022/03/17 07:43:32;;;;;;;11.50;6.00;;;;;;;5.37;100.00;95463.94;5031860;28;20228;-64
2022/03/17 07:45:57;;;;;;;6.67;5.37;;;;;;;5.42;100.00;95466.19;5031385;28;20213;-62
2022/03/17 07:48:23;;;;;;;10.97;6.17;;;;;;;5.15;100.00;95462.59;5031642;28;20181;-61
2022/03/17 07:50:50;;;;;;;9.03;6.00;;;;;;;4.83;100.00;95467.50;5031587;28;20196;-65
2022/03/17 07:53:16;;;;;;;9.53;6.53;;;;;;;5.00;100.00;95464.16;5014106;28;20188;-64
2022/03/17 07:55:43;;;;;;;8.27;5.63;;;;;;;5.17;100.00;95465.84;5023246;23;20238;-60
2022/03/17 07:58:10;;;;;;;8.83;6.47;;;;;;;5.13;100.00;95464.38;5011860;28;20194;-63
2022/03/17 08:00:37;;;;;;;8.07;5.47;;;;;;;5.44;100.00;95482.88;5015219;28;20205;-61
2022/03/17 08:03:05;;;;;;;12.07;5.60;;;;;;;5.39;100.00;95481.50;5015765;28;20344;-63
2022/03/17 08:05:31;;;;;;;7.97;5.80;;;;;;;5.02;100.00;95468.25;5016037;28;20669;-63
2022/03/17 08:07:59;;;;;;;14.17;8.17;;;;;;;4.55;100.00;95468.94;5015747;28;20232;-60
2022/03/17 08:10:25;;;;;;;10.93;7.67;;;;;;;4.36;100.00;95476.56;5016114;28;20704;-62
2022/03/17 08:12:50;;;;;;;13.97;7.53;;;;;;;4.76;100.00;95481.31;5015715;28;20264;-61
2022/03/17 08:15:16;;;;;;;10.37;6.50;;;;;;;4.93;100.00;95482.97;5015942;28;20204;-66
2022/03/17 08:17:42;;;;;;;7.30;5.40;;;;;;;5.04;100.00;95485.78;4997973;28;20235;-64
2022/03/17 08:20:08;;;;;;;7.97;5.93;;;;;;;5.28;100.00;95488.78;5015704;28;20204;-64
2022/03/17 08:22:34;;;;;;;10.33;6.23;;;;;;;5.53;100.00;95501.78;5015286;28;20186;-64
2022/03/17 08:24:59;;;;;;;10.87;7.10;;;;;;;5.55;100.00;95512.59;5015410;28;20532;-60
2022/03/17 08:27:25;;;;;;;7.57;6.30;;;;;;;5.28;100.00;95488.78;4997805;28;20213;-63
2022/03/17 08:29:50;;;;;;;8.03;5.97;;;;;;;5.47;100.00;95502.09;5015418;28;20218;-61
2022/03/17 08:32:16;;;;;;;8.00;6.00;;;;;;;5.50;100.00;95500.22;5023726;23;20181;-65
2022/03/17 08:34:41;;;;;;;9.17;6.27;;;;;;;5.43;100.00;95493.88;5035224;28;20183;-63
2022/03/17 08:37:07;;;;;;;8.43;5.80;;;;;;;5.38;100.00;95484.91;5034922;28;20201;-64
2022/03/17 08:39:32;;;;;;;10.97;7.13;;;;;;;4.70;100.00;95475.75;5035164;28;20216;-61
2022/03/17 08:41:58;;;;;;;9.27;6.53;;;;;;;4.86;100.00;95481.66;5034796;28;20195;-66
2022/03/17 08:44:24;;;;;;;10.03;6.73;;;;;;;4.79;100.00;95483.66;5034898;28;20188;-62
2022/03/17 08:49:33;;;;;;;13.17;7.73;;;;;;;5.13;100.00;95479.47;5035162;28;20192;-62
2022/03/17 08:52:01;;;;;;;11.57;7.43;;;;;;;5.13;100.00;95485.31;5016793;28;20211;-63
2022/03/17 08:54:28;;;;;;;9.87;7.80;;;;;;;5.30;100.00;95485.28;5016846;28;20196;-63
2022/03/17 08:56:59;;;;;;;11.47;8.00;;;;;;;5.28;100.00;95488.78;5034407;28;20637;-61
2022/03/17 08:59:35;;;;;;;14.83;9.57;;;;;;;5.23;100.00;95486.50;5017506;28;20179;-63
2022/03/17 09:02:03;;;;;;;13.03;8.70;;;;;;;5.20;100.00;95494.22;5034556;28;20268;-63
2022/03/17 09:04:29;;;;;;;13.13;8.30;;;;;;;5.18;100.00;95503.56;5016804;28;20669;-64
2022/03/17 09:07:02;;;;;;;11.10;8.00;;;;;;;5.17;100.00;95491.03;5016466;28;20232;-63
2022/03/17 09:09:33;;;;;;;11.67;8.37;;;;;;;5.40;100.00;95504.09;5016576;28;20183;-63
2022/03/17 09:11:59;;;;;;;12.60;8.43;;;;;;;5.55;100.00;95508.38;5033969;28;20205;-66
2022/03/17 09:14:25;;;;;;;13.17;7.67;;;;;;;5.52;100.00;95502.66;5016539;28;20597;-66
2022/03/17 09:16:52;;;;;;;15.23;8.37;;;;;;;5.69;100.00;95505.13;5034245;28;20631;-62
2022/03/17 09:19:20;;;;;;;10.50;8.07;;;;;;;5.64;100.00;95512.09;5034643;28;20181;-64
2022/03/17 09:21:46;;;;;;;10.70;7.93;;;;;;;5.91;100.00;95526.66;5034207;28;20192;-63
2022/03/17 09:24:11;;;;;;;10.10;8.00;;;;;;;5.88;100.00;95521.78;5034164;28;20213;-66
2022/03/17 09:26:37;;;;;;;12.27;8.37;;;;;;;5.97;100.00;95534.78;5034092;28;20248;-60
2022/03/17 09:29:03;;;;;;;10.13;7.60;;;;;;;5.95;100.00;95534.88;5034504;28;20182;-64
2022/03/17 09:31:29;;;;;;;11.27;8.20;;;;;;;6.06;100.00;95541.91;5016287;28;20205;-63
2022/03/17 09:33:55;;;;;;;10.60;7.50;;;;;;;6.28;100.00;95544.91;5034424;28;20193;-60
2022/03/17 09:36:21;;;;;;;12.87;8.30;;;;;;;6.41;100.00;95556.78;5033962;28;20216;-61
2022/03/17 09:41:33;;;;;;;11.73;8.97;;;;;;;6.02;100.00;95548.00;5033805;28;20654;-65
2022/03/17 09:43:58;;;;;;;13.17;10.03;;;;;;;5.66;100.00;95536.34;5034518;28;20176;-61
2022/03/17 09:46:27;;;;;;;14.67;9.23;;;;;;;5.22;100.00;95531.94;5015881;28;20286;-63
2022/03/17 09:48:55;;;;;;;16.73;11.33;;;;;;;5.16;100.00;95535.59;5034174;28;20670;-63
2022/03/17 09:51:23;;;;;;;16.07;11.07;;;;;;;5.02;100.00;95538.78;5033560;28;20217;-65
2022/03/17 09:53:53;;;;;;;18.27;10.87;;;;;;;4.96;100.00;95533.22;5033908;28;20181;-63
2022/03/17 09:56:23;;;;;;;12.97;9.83;;;;;;;4.95;100.00;95537.44;5033486;28;20202;-64
2022/03/17 09:58:57;;;;;;;13.87;10.30;;;;;;;5.43;100.00;95556.91;5015971;28;20190;-64
2022/03/17 10:01:26;;;;;;;12.63;9.33;;;;;;;5.65;100.00;95564.19;5015584;28;20201;-63
2022/03/17 10:03:57;;;;;;;14.77;9.43;;;;;;;5.58;100.00;95568.72;5033650;28;20181;-63
2022/03/17 10:06:23;;;;;;;12.37;10.03;;;;;;;5.38;100.00;95550.44;5033163;28;20213;-62
2022/03/17 10:08:48;;;;;;;14.60;10.47;;;;;;;5.49;100.00;95558.28;5033630;28;20553;-63
2022/03/17 10:11:18;;;;;;;11.53;9.20;;;;;;;5.48;100.00;95561.69;5033155;28;20204;-61
2022/03/17 10:13:46;;;;;;;12.33;9.13;;;;;;;5.56;100.00;95572.22;5033700;28;20189;-63
2022/03/17 10:16:12;;;;;;;11.03;6.87;;;;;;;5.47;100.00;95575.22;5015237;28;20296;-64
2022/03/17 10:18:39;;;;;;;11.00;7.50;;;;;;;5.47;100.00;95560.91;5033499;28;20180;-66
2022/03/17 10:21:07;;;;;;;10.63;7.60;;;;;;;5.56;100.00;95568.00;5015390;28;20213;-63
2022/03/17 10:23:33;;;;;;;8.93;7.03;;;;;;;5.74;100.00;95576.31;5032508;28;20569;-63
2022/03/17 10:25:59;;;;;;;8.67;7.67;;;;;;;5.80;100.00;95583.56;5032857;28;20262;-62
2022/03/17 10:28:27;;;;;;;9.57;6.57;;;;;;;6.02;100.00;95604.31;5033326;28;20182;-63
2022/03/17 10:31:07;;;;;;;10.07;7.30;;;;;;;5.80;100.00;95594.47;5033273;28;20295;-66
2022/03/17 10:36:30;;;;;;;9.73;7.20;;;;;;;5.69;100.00;95574.06;5043657;23;20239;-61
2022/03/17 10:38:55;;;;;;;11.40;7.33;;;;;;;5.69;100.00;95560.63;5032609;28;20177;-64
2022/03/17 10:41:21;;;;;;;9.10;7.07;;;;;;;5.78;100.00;95565.19;5032522;28;20294;-60
2022/03/17 10:43:46;;;;;;;9.93;7.17;;;;;;;5.97;100.00;95580.22;5032536;28;20228;-65
2022/03/17 10:46:18;;;;;;;11.80;8.13;;;;;;;5.98;100.00;95597.78;5033112;28;20224;-60
2022/03/17 10:49:22;;;;;;;11.83;7.10;;;;;;;5.93;100.00;95574.53;5032641;28;20635;-64
2022/03/17 10:51:53;;;;;;;13.00;8.17;;;;;;;5.69;100.00;95561.44;4952555;29;20198;-64
2022/03/17 10:54:18;;;;;;;10.37;7.77;;;;;;;5.89;100.00;95568.00;4936341;29;20195;-59
2022/03/17 10:57:05;;;;;;;10.43;7.47;;;;;;;5.95;100.00;95572.72;4975619;28;20196;-60
2022/03/17 10:59:44;;;;;;;10.27;7.83;;;;;;;5.95;100.00;95567.69;5032394;28;20588;-64
2022/03/17 11:02:12;;;;;;;11.90;7.87;;;;;;;5.89;100.00;95565.47;5032414;28;20222;-61
2022/03/17 11:04:39;;;;;;;11.83;8.60;;;;;;;5.95;100.00;95560.13;5014790;28;20228;-62
2022/03/17 11:07:08;;;;;;;14.63;8.73;;;;;;;5.99;100.00;95554.00;5032512;28;20221;-60
2022/03/17 11:09:40;;;;;;;12.17;7.67;;;;;;;6.06;100.00;95565.41;5014275;28;20284;-63
2022/03/17 11:12:10;;;;;;;8.60;6.93;;;;;;;6.18;100.00;95579.91;5032329;28;20620;-60
2022/03/17 11:14:50;;;;;;;8.60;6.47;;;;;;;6.28;100.00;95580.25;5031950;28;20212;-61
2022/03/17 11:17:24;;;;;;;8.37;6.80;;;;;;;6.12;100.00;95554.19;5032008;28;20194;-65
2022/03/17 11:19:51;;;;;;;8.03;5.70;;;;;;;6.24;100.00;95568.69;5032004;28;20195;-63
2022/03/17 11:22:22;;;;;;;7.30;5.27;;;;;;;6.29;100.00;95562.50;5031974;28;20537;-64
2022/03/17 11:25:23;;;;;;;8.70;5.53;;;;;;;6.16;100.00;95561.50;5013976;28;20201;-65
2022/03/17 11:27:50;;;;;;;6.27;4.53;;;;;;;5.89;100.00;95578.09;5014203;28;20196;-63
2022/03/17 11:30:17;;;;;;;7.57;5.10;;;;;;;6.25;100.00;95586.28;5031911;28;20201;-64
2022/03/17 11:32:54;;;;;;;6.27;4.60;;;;;;;6.28;100.00;95581.03;5032189;28;20243;-62
2022/03/17 11:35:25;;;;;;;6.03;4.97;;;;;;;6.23;100.00;95572.91;5031891;28;20750;-63
2022/03/17 11:38:14;;;;;;;6.27;5.07;;;;;;;6.33;100.00;95579.09;5032351;28;20200;-61
2022/03/17 11:41:16;;;;;;;6.03;4.43;;;;;;;6.29;100.00;95572.59;5013876;28;20296;-64
2022/03/17 11:43:59;;;;;;;5.97;3.73;;;;;;;6.47;100.00;95596.84;5031695;28;20182;-63
2022/03/17 11:46:45;;;;;;;6.17;3.63;;;;;;;6.32;100.00;95579.97;5031416;28;20211;-61
2022/03/17 11:49:27;;;;;;;4.33;3.67;;;;;;;6.33;100.00;95574.06;5031291;28;20182;-63
2022/03/17 11:52:02;;;;;;;4.70;3.70;;;;;;;6.28;100.00;95552.47;5031881;28;20189;-61
2022/03/17 11:54:29;;;;;;;5.70;3.90;;;;;;;6.23;100.00;95577.97;5013811;28;20200;-60